Time;durP1;ratioP1;P1;durP2;ratioP2;P2;SDS_P1;SDS_P2;PMS_P1;PMS_P2;Temp;Humidity;BMP_temperature;BMP_pressure;BME280_temperature;BME280_humidity;BME280_pressure;Samples;Min_cycle;Max_cycle;Signal;HPM_P1;HPM_P2
2021/08/13 00:01:48;;;;;;;36.55;26.95;;;16.40;99.90;;;;;;5092131;28;20028;-85
2021/08/13 00:04:28;;;;;;;31.83;22.00;;;16.40;99.90;;;;;;5093100;28;20016;-86
2021/08/13 00:07:04;;;;;;;32.60;22.58;;;16.40;99.90;;;;;;5093447;28;20497;-86
2021/08/13 00:09:34;;;;;;;31.55;24.20;;;16.50;99.90;;;;;;5092162;28;20027;-86
2021/08/13 00:12:00;;;;;;;41.17;28.27;;;16.50;99.90;;;;;;5092315;28;20024;-85
2021/08/13 00:14:37;;;;;;;29.60;21.58;;;16.30;99.90;;;;;;5092580;28;20047;-86
2021/08/13 00:17:11;;;;;;;30.05;23.73;;;16.60;99.90;;;;;;5091859;28;20058;-86
2021/08/13 00:19:39;;;;;;;34.13;23.83;;;16.40;99.90;;;;;;5092130;28;20032;-86
2021/08/13 00:22:08;;;;;;;41.75;27.65;;;16.40;99.90;;;;;;5091576;28;20036;-86
2021/08/13 00:24:41;;;;;;;35.65;27.23;;;16.40;99.90;;;;;;5091446;28;20024;-86
2021/08/13 00:27:09;;;;;;;49.25;36.13;;;16.60;99.90;;;;;;5093001;28;20068;-86
2021/08/13 00:29:43;;;;;;;51.60;37.30;;;16.40;99.90;;;;;;5092904;28;20082;-86
2021/08/13 00:32:11;;;;;;;;;;;16.50;99.90;;;;;;5092168;28;20106;-86
2021/08/13 00:34:42;;;;;;;35.40;26.88;;;16.40;99.90;;;;;;5092487;28;20646;-86
2021/08/13 00:37:10;;;;;;;34.38;26.15;;;16.40;99.90;;;;;;5091424;28;20036;-86
2021/08/13 00:39:54;;;;;;;47.70;34.95;;;16.40;99.90;;;;;;5091330;28;20035;-85
2021/08/13 00:42:24;;;;;;;44.42;31.92;;;16.40;99.90;;;;;;5091503;28;20058;-85
2021/08/13 00:44:50;;;;;;;40.47;29.60;;;16.50;99.90;;;;;;5091098;28;20027;-86
2021/08/13 00:47:16;;;;;;;45.92;32.83;;;16.50;99.90;;;;;;5091358;28;20521;-87
2021/08/13 00:49:41;;;;;;;40.47;30.92;;;16.60;99.90;;;;;;5091668;28;20020;-87
2021/08/13 00:52:07;;;;;;;50.55;31.60;;;16.50;99.90;;;;;;5091384;28;20369;-86
2021/08/13 00:54:33;;;;;;;52.97;36.50;;;16.50;99.90;;;;;;5092284;28;20095;-86
2021/08/13 00:56:59;;;;;;;50.90;36.55;;;16.50;99.90;;;;;;5090926;28;20048;-86
2021/08/13 00:59:25;;;;;;;50.85;34.15;;;16.50;99.90;;;;;;5091302;28;20031;-87
2021/08/13 01:01:50;;;;;;;41.58;30.70;;;16.50;99.90;;;;;;5092503;28;20024;-87
2021/08/13 01:04:16;;;;;;;48.40;30.55;;;16.50;99.90;;;;;;5090950;28;20488;-86
2021/08/13 01:06:42;;;;;;;37.95;27.08;;;16.50;99.90;;;;;;5090862;28;20031;-86
2021/08/13 01:09:07;;;;;;;36.33;28.38;;;16.50;99.90;;;;;;5090451;28;20023;-86
2021/08/13 01:11:57;;;;;;;39.20;27.70;;;16.60;99.90;;;;;;5092335;28;20028;-87
2021/08/13 01:14:53;;;;;;;35.85;26.10;;;16.50;99.90;;;;;;5090966;28;20029;-87
2021/08/13 01:17:22;;;;;;;34.13;24.33;;;16.50;99.90;;;;;;5090896;28;20043;-87
2021/08/13 01:20:09;;;;;;;40.50;27.98;;;16.70;99.90;;;;;;5091043;28;20031;-88
2021/08/13 01:22:55;;;;;;;32.15;24.45;;;16.50;99.90;;;;;;5091252;28;20184;-86
2021/08/13 01:25:25;;;;;;;38.38;27.85;;;16.50;99.90;;;;;;5090609;28;20392;-86
2021/08/13 01:27:54;;;;;;;34.33;25.77;;;16.50;99.90;;;;;;5090626;28;20034;-86
2021/08/13 01:30:25;;;;;;;35.88;24.65;;;16.50;99.90;;;;;;5090675;28;20433;-85
2021/08/13 01:33:01;;;;;;;36.00;26.45;;;16.50;99.90;;;;;;5092013;28;20026;-86
2021/08/13 01:35:53;;;;;;;39.95;25.80;;;16.50;99.90;;;;;;5090530;28;20031;-86
2021/08/13 01:38:23;;;;;;;42.15;32.65;;;16.70;99.90;;;;;;5087353;28;20409;-87
2021/08/13 01:40:51;;;;;;;48.28;37.00;;;16.50;99.90;;;;;;5090875;28;20031;-87
2021/08/13 01:43:25;;;;;;;41.53;27.95;;;16.50;99.90;;;;;;5090828;28;20054;-86
2021/08/13 01:45:52;;;;;;;33.75;24.25;;;16.40;99.90;;;;;;5091690;28;20069;-85
2021/08/13 01:48:19;;;;;;;33.63;28.08;;;16.40;99.90;;;;;;5091806;28;20050;-86
2021/08/13 01:50:45;;;;;;;31.10;25.35;;;16.50;99.90;;;;;;5091902;28;20081;-86
2021/08/13 01:53:14;;;;;;;32.83;25.00;;;16.50;99.90;;;;;;5090718;28;20036;-87
2021/08/13 01:55:43;;;;;;;47.50;30.73;;;16.40;99.90;;;;;;5090275;28;20450;-85
2021/08/13 01:58:09;;;;;;;40.58;31.25;;;16.50;99.90;;;;;;5090344;28;20024;-86
2021/08/13 02:00:36;;;;;;;39.78;28.52;;;16.30;99.90;;;;;;5090466;28;20449;-85
2021/08/13 02:03:02;;;;;;;35.25;26.63;;;16.40;99.90;;;;;;5090866;28;20476;-87
2021/08/13 02:05:30;;;;;;;44.15;33.20;;;16.40;99.90;;;;;;5090496;28;20024;-87
2021/08/13 02:08:01;;;;;;;51.58;34.38;;;16.40;99.90;;;;;;5090561;28;20020;-87
2021/08/13 02:10:27;;;;;;;46.28;35.47;;;16.40;99.90;;;;;;5090327;28;20677;-86
2021/08/13 02:12:52;;;;;;;43.50;32.45;;;16.30;99.90;;;;;;5090933;28;20039;-85
2021/08/13 02:15:19;;;;;;;65.72;41.15;;;16.40;99.90;;;;;;5091316;28;20062;-86
2021/08/13 02:17:57;;;;;;;50.70;34.55;;;16.30;99.90;;;;;;5090631;28;20032;-86
2021/08/13 02:20:25;;;;;;;47.90;35.80;;;16.30;99.90;;;;;;5090509;28;20028;-86
2021/08/13 02:22:51;;;;;;;62.33;40.20;;;16.30;99.90;;;;;;5094168;28;20381;-86
2021/08/13 02:25:16;;;;;;;45.90;32.15;;;16.20;99.90;;;;;;5094046;28;20030;-88
2021/08/13 02:27:43;;;;;;;50.70;33.58;;;16.20;99.90;;;;;;5095507;28;20023;-86
2021/08/13 02:30:09;;;;;;;46.55;33.55;;;16.30;99.90;;;;;;5093899;28;20028;-87
2021/08/13 02:32:36;;;;;;;39.25;28.83;;;16.20;99.90;;;;;;5094162;28;20103;-86
2021/08/13 02:35:03;;;;;;;39.50;27.83;;;16.20;99.90;;;;;;5093828;28;20048;-87
2021/08/13 02:37:48;;;;;;;46.78;31.48;;;16.20;99.90;;;;;;5093950;28;20089;-86
2021/08/13 02:40:40;;;;;;;45.60;28.33;;;16.20;99.90;;;;;;5093801;28;20020;-86
2021/08/13 02:43:12;;;;;;;38.40;26.70;;;16.10;99.90;;;;;;5094287;28;20471;-85
2021/08/13 02:45:44;;;;;;;33.97;26.93;;;16.10;99.90;;;;;;5093461;28;20531;-86
2021/08/13 02:48:10;;;;;;;42.83;29.38;;;16.10;99.90;;;;;;5094006;28;20097;-85
2021/08/13 02:50:39;;;;;;;35.80;26.58;;;15.90;99.90;;;;;;5093762;28;20475;-86
2021/08/13 02:53:07;;;;;;;34.35;24.70;;;15.90;99.90;;;;;;5093879;28;20032;-85
2021/08/13 02:55:44;;;;;;;43.60;32.15;;;15.70;99.90;;;;;;5093501;28;20065;-87
2021/08/13 02:58:13;;;;;;;40.63;28.38;;;15.60;99.90;;;;;;5093664;28;20461;-85
2021/08/13 03:00:42;;;;;;;52.25;37.40;;;15.50;99.90;;;;;;5093275;28;20032;-87
2021/08/13 03:03:11;;;;;;;44.97;30.35;;;15.60;99.90;;;;;;5093518;28;20023;-87
2021/08/13 03:05:40;;;;;;;41.17;29.48;;;15.50;99.90;;;;;;5093259;28;20032;-87
2021/08/13 03:08:06;;;;;;;36.60;26.75;;;15.40;99.90;;;;;;5093569;28;20020;-86
2021/08/13 03:10:32;;;;;;;54.40;35.35;;;15.30;99.90;;;;;;5093255;28;20051;-86
2021/08/13 03:12:59;;;;;;;57.25;37.90;;;15.30;99.90;;;;;;5095327;28;20099;-87
2021/08/13 03:15:25;;;;;;;52.17;34.38;;;15.50;99.90;;;;;;5094418;28;20024;-87
2021/08/13 03:17:52;;;;;;;48.60;35.28;;;15.30;99.90;;;;;;5097150;28;20024;-87
2021/08/13 03:20:19;;;;;;;51.45;34.22;;;15.30;99.90;;;;;;5097464;28;20082;-86
2021/08/13 03:22:45;;;;;;;70.53;44.00;;;15.30;99.90;;;;;;5098744;28;20032;-85
2021/08/13 03:25:12;;;;;;;72.97;44.15;;;15.20;99.90;;;;;;5101253;28;20024;-86
2021/08/13 03:27:41;;;;;;;85.72;54.78;;;15.20;99.90;;;;;;5094777;28;20031;-86
2021/08/13 03:30:07;;;;;;;60.42;42.35;;;15.10;99.90;;;;;;5095050;28;20095;-86
2021/08/13 03:32:33;;;;;;;63.17;41.60;;;15.20;99.90;;;;;;5092476;28;20024;-88
2021/08/13 03:34:59;;;;;;;49.38;33.55;;;15.10;99.90;;;;;;5092886;28;20027;-87
2021/08/13 03:37:25;;;;;;;41.20;29.60;;;15.10;99.90;;;;;;5093170;28;20032;-85
2021/08/13 03:39:50;;;;;;;49.53;31.90;;;15.00;99.90;;;;;;5094330;28;20149;-85
2021/08/13 03:42:16;;;;;;;37.60;28.20;;;14.90;99.90;;;;;;5092417;28;20114;-87
2021/08/13 03:44:41;;;;;;;47.47;32.58;;;14.80;99.90;;;;;;5092505;28;20020;-86
2021/08/13 03:47:07;;;;;;;67.82;44.40;;;14.70;99.90;;;;;;5092624;28;20024;-86
2021/08/13 03:49:33;;;;;;;66.68;43.70;;;14.80;99.90;;;;;;5092171;28;20024;-86
2021/08/13 03:51:59;;;;;;;118.90;68.40;;;14.80;99.90;;;;;;5092647;28;20024;-86
2021/08/13 03:54:25;;;;;;;79.85;52.80;;;14.70;99.90;;;;;;5092248;28;20114;-86
2021/08/13 03:56:50;;;;;;;88.18;54.50;;;15.00;99.90;;;;;;5092414;28;20059;-85
2021/08/13 03:59:16;;;;;;;78.68;48.05;;;14.80;99.90;;;;;;5091842;28;20028;-86
2021/08/13 04:01:41;;;;;;;82.45;51.80;;;14.90;99.90;;;;;;5092640;28;20034;-86
2021/08/13 04:04:07;;;;;;;77.15;47.15;;;14.70;99.90;;;;;;5092218;28;20059;-86
2021/08/13 04:06:33;;;;;;;100.43;56.50;;;14.80;99.90;;;;;;5092379;28;20032;-87
2021/08/13 04:08:58;;;;;;;107.13;62.20;;;14.70;99.90;;;;;;5093244;28;20063;-85
2021/08/13 04:11:24;;;;;;;82.95;50.03;;;14.70;99.90;;;;;;5092101;28;20035;-87
2021/08/13 04:13:50;;;;;;;83.72;47.05;;;14.70;99.90;;;;;;5092121;28;20024;-86
2021/08/13 04:16:15;;;;;;;90.82;55.08;;;14.70;99.90;;;;;;5092035;28;20031;-86
2021/08/13 04:18:41;;;;;;;113.10;64.25;;;14.70;99.90;;;;;;5093268;28;20028;-86
2021/08/13 04:21:06;;;;;;;136.05;73.60;;;14.80;99.90;;;;;;5091830;28;20349;-87
2021/08/13 04:23:32;;;;;;;129.95;70.50;;;14.80;99.90;;;;;;5092008;28;20023;-85
2021/08/13 04:25:58;;;;;;;131.18;72.70;;;14.90;99.90;;;;;;5093109;28;20113;-86
2021/08/13 04:28:23;;;;;;;124.90;69.55;;;15.00;99.90;;;;;;5093052;28;20035;-85
2021/08/13 04:30:49;;;;;;;126.63;68.20;;;14.90;99.90;;;;;;5092797;28;20036;-86
2021/08/13 04:33:14;;;;;;;116.65;61.05;;;15.00;99.90;;;;;;5091927;28;20069;-86
2021/08/13 04:35:41;;;;;;;105.88;55.40;;;15.10;99.90;;;;;;5091561;28;20032;-86
2021/08/13 04:38:07;;;;;;;123.38;66.15;;;15.20;99.90;;;;;;5091904;28;20081;-86
2021/08/13 04:40:33;;;;;;;176.93;89.50;;;15.20;99.90;;;;;;5092716;28;20098;-85
2021/08/13 04:42:59;;;;;;;189.30;94.93;;;15.20;99.90;;;;;;5091671;28;20373;-86
2021/08/13 04:45:25;;;;;;;167.13;90.15;;;15.30;99.90;;;;;;5090548;28;20028;-86
2021/08/13 04:47:51;;;;;;;149.18;78.60;;;15.30;99.90;;;;;;5091489;28;20024;-86
2021/08/13 04:50:16;;;;;;;168.98;85.05;;;15.40;99.90;;;;;;5091161;28;20077;-84
2021/08/13 04:52:50;;;;;;;184.63;92.40;;;15.60;99.90;;;;;;5091566;28;20016;-86
2021/08/13 04:55:24;;;;;;;165.13;86.28;;;15.70;99.90;;;;;;5092475;28;20112;-86
2021/08/13 04:57:50;;;;;;;142.90;73.65;;;15.70;99.90;;;;;;5091616;28;20032;-87
2021/08/13 05:00:17;;;;;;;183.30;94.47;;;15.80;99.90;;;;;;5091363;28;20110;-86
2021/08/13 05:02:46;;;;;;;144.90;76.47;;;15.90;99.90;;;;;;5090878;28;20072;-86
2021/08/13 05:05:12;;;;;;;143.90;78.53;;;16.00;99.90;;;;;;5090867;28;20388;-86
2021/08/13 05:07:39;;;;;;;147.85;79.10;;;16.00;99.90;;;;;;5092590;28;20025;-87
2021/08/13 05:10:12;;;;;;;147.65;74.75;;;16.10;99.90;;;;;;5091505;28;20104;-86
2021/08/13 05:12:38;;;;;;;143.02;78.75;;;16.10;99.90;;;;;;5092431;28;20032;-87
2021/08/13 05:15:08;;;;;;;142.95;76.57;;;16.20;99.90;;;;;;5091726;28;20045;-85
2021/08/13 05:17:48;;;;;;;141.80;76.70;;;16.20;99.90;;;;;;5091208;28;20031;-86
2021/08/13 05:20:25;;;;;;;142.25;77.43;;;16.20;99.90;;;;;;5091188;28;20112;-87
2021/08/13 05:22:55;;;;;;;128.35;70.25;;;16.20;99.90;;;;;;5092164;28;20024;-86
2021/08/13 05:25:21;;;;;;;144.63;73.47;;;16.30;99.90;;;;;;5090963;28;20027;-85
2021/08/13 05:27:51;;;;;;;133.65;71.53;;;16.30;99.90;;;;;;5092678;28;20020;-86
2021/08/13 05:30:17;;;;;;;139.68;74.70;;;16.30;99.90;;;;;;5091246;28;20527;-87
2021/08/13 05:33:01;;;;;;;135.90;77.68;;;16.40;99.90;;;;;;5090750;28;20115;-88
2021/08/13 05:35:47;;;;;;;134.23;73.07;;;16.50;99.90;;;;;;5091980;28;20020;-86
2021/08/13 05:38:12;;;;;;;148.23;87.03;;;16.60;99.90;;;;;;5092461;28;20039;-88
2021/08/13 05:40:44;;;;;;;150.57;77.82;;;16.80;99.90;;;;;;5090802;28;20024;-86
2021/08/13 05:43:23;;;;;;;137.80;76.05;;;16.90;99.90;;;;;;5090415;28;20511;-87
2021/08/13 05:45:49;;;;;;;124.18;75.90;;;17.00;99.90;;;;;;5090374;28;20028;-85
2021/08/13 05:48:19;;;;;;;110.47;65.93;;;17.10;99.90;;;;;;5090534;28;20408;-85
2021/08/13 05:50:51;;;;;;;108.57;62.53;;;17.10;99.90;;;;;;5090268;28;20028;-86
2021/08/13 05:53:18;;;;;;;97.47;60.53;;;17.30;99.90;;;;;;5090147;28;20364;-86
2021/08/13 05:56:02;;;;;;;;;;;;;;;;;;;;;
2021/08/13 06:01:35;;;;;;;98.90;63.67;;;17.60;99.90;;;;;;5095823;28;20073;-85
2021/08/13 06:04:09;;;;;;;78.43;53.65;;;17.70;99.90;;;;;;5094054;28;20020;-85
2021/08/13 06:06:41;;;;;;;97.68;60.17;;;17.40;99.90;;;;;;5094661;28;20025;-86
2021/08/13 06:09:14;;;;;;;85.50;55.03;;;17.30;99.90;;;;;;5094367;28;20020;-86
2021/08/13 06:11:43;;;;;;;78.05;52.35;;;17.20;99.90;;;;;;5095776;28;20063;-86
2021/08/13 06:14:11;;;;;;;75.68;48.95;;;17.30;99.90;;;;;;5095066;28;20035;-85
2021/08/13 06:16:39;;;;;;;96.72;58.85;;;17.40;99.90;;;;;;5095482;28;20654;-85
2021/08/13 06:19:08;;;;;;;78.22;51.08;;;17.50;99.90;;;;;;5095423;28;20028;-85
2021/08/13 06:21:41;;;;;;;85.18;57.10;;;17.60;99.90;;;;;;5094133;28;20028;-85
2021/08/13 06:24:07;;;;;;;79.05;50.92;;;17.90;99.90;;;;;;5093605;28;20134;-85
2021/08/13 06:26:35;;;;;;;77.00;53.40;;;17.90;99.90;;;;;;5094958;28;20469;-85
2021/08/13 06:29:11;;;;;;;76.63;52.25;;;18.00;99.90;;;;;;5095206;28;20058;-85
2021/08/13 06:31:48;;;;;;;66.95;46.10;;;18.10;99.90;;;;;;5093750;28;20036;-86
2021/08/13 06:34:32;;;;;;;70.55;48.25;;;18.40;99.90;;;;;;5093640;28;20046;-84
2021/08/13 06:36:58;;;;;;;67.20;48.35;;;18.50;99.90;;;;;;5093790;28;20028;-85
2021/08/13 06:39:26;;;;;;;64.93;43.58;;;18.60;99.90;;;;;;5094082;28;20552;-85
2021/08/13 06:41:57;;;;;;;60.50;40.17;;;18.80;99.90;;;;;;5093792;28;20039;-85
2021/08/13 06:44:31;;;;;;;59.83;39.45;;;19.00;99.90;;;;;;5093046;28;20131;-85
2021/08/13 06:47:03;;;;;;;51.22;35.00;;;19.20;99.90;;;;;;5093960;28;20076;-85
2021/08/13 06:49:29;;;;;;;45.55;31.33;;;19.40;99.90;;;;;;5088556;28;20039;-85
2021/08/13 06:51:59;;;;;;;40.22;26.95;;;19.50;99.90;;;;;;5093917;28;20028;-85
2021/08/13 06:54:27;;;;;;;41.20;28.85;;;19.60;99.90;;;;;;5093492;28;20514;-87
2021/08/13 06:56:52;;;;;;;43.70;28.17;;;19.60;99.90;;;;;;5094608;28;20527;-87
2021/08/13 06:59:18;;;;;;;48.53;29.00;;;19.90;99.90;;;;;;5093973;28;20131;-87
2021/08/13 07:01:44;;;;;;;33.97;25.90;;;20.00;99.90;;;;;;5094279;28;20024;-87
2021/08/13 07:04:09;;;;;;;40.42;24.60;;;20.40;99.90;;;;;;5093622;28;20020;-87
2021/08/13 07:06:35;;;;;;;37.13;24.67;;;20.50;99.90;;;;;;5094515;28;20028;-86
2021/08/13 07:09:01;;;;;;;36.38;22.45;;;20.80;99.90;;;;;;5093158;28;20503;-87
2021/08/13 07:11:27;;;;;;;29.80;21.52;;;20.80;99.90;;;;;;5093665;28;20051;-89
2021/08/13 07:13:54;;;;;;;35.33;21.92;;;21.00;99.90;;;;;;5093803;28;20054;-88
2021/08/13 07:16:20;;;;;;;29.08;20.33;;;21.00;99.90;;;;;;5094475;28;20024;-88
2021/08/13 07:18:46;;;;;;;36.38;21.52;;;21.20;99.90;;;;;;5093767;28;20027;-87
2021/08/13 07:21:12;;;;;;;34.08;19.48;;;21.20;99.90;;;;;;5094817;28;20077;-88
2021/08/13 07:23:38;;;;;;;28.90;17.27;;;21.30;99.90;;;;;;5093485;28;20021;-89
2021/08/13 07:26:06;;;;;;;33.80;17.27;;;21.50;99.90;;;;;;5092746;28;20031;-87
2021/08/13 07:28:34;;;;;;;26.90;16.08;;;21.70;99.90;;;;;;5093319;28;20483;-87
2021/08/13 07:31:03;;;;;;;21.27;14.80;;;21.50;99.90;;;;;;5093358;28;20031;-88
2021/08/13 07:33:32;;;;;;;22.35;14.68;;;21.70;99.90;;;;;;5093778;28;20035;-87
2021/08/13 07:36:02;;;;;;;19.13;12.73;;;21.60;99.90;;;;;;5093967;28;20035;-87
2021/08/13 07:38:39;;;;;;;22.20;12.40;;;21.50;99.90;;;;;;5092850;28;20036;-87
2021/08/13 07:41:08;;;;;;;22.50;14.23;;;21.60;99.90;;;;;;5094075;28;20020;-88
2021/08/13 07:43:37;;;;;;;24.70;14.55;;;21.70;99.90;;;;;;5093470;28;20020;-89
2021/08/13 07:46:03;;;;;;;25.75;14.10;;;21.60;99.90;;;;;;5092926;28;20090;-88
2021/08/13 07:48:30;;;;;;;21.20;14.57;;;21.80;99.90;;;;;;5075439;28;20024;-84
2021/08/13 07:51:01;;;;;;;21.30;14.55;;;21.80;99.90;;;;;;5091086;28;20043;-88
2021/08/13 07:53:26;;;;;;;25.50;13.77;;;21.80;99.90;;;;;;5093040;28;20024;-88
2021/08/13 07:56:15;;;;;;;22.23;13.32;;;21.90;99.90;;;;;;5094007;28;20032;-86
2021/08/13 07:58:46;;;;;;;22.00;14.20;;;22.00;99.90;;;;;;5083534;28;20133;-87
2021/08/13 08:01:41;;;;;;;22.05;13.75;;;22.10;99.90;;;;;;5093043;28;20032;-88
2021/08/13 08:04:06;;;;;;;16.95;11.40;;;22.30;99.90;;;;;;5094157;28;20024;-86
2021/08/13 08:06:33;;;;;;;16.98;10.88;;;22.30;99.90;;;;;;5091764;28;20082;-87
2021/08/13 08:08:58;;;;;;;19.70;11.38;;;22.20;99.90;;;;;;5092806;28;20031;-89
2021/08/13 08:11:27;;;;;;;23.67;10.63;;;22.40;99.90;;;;;;5092758;28;20032;-88
2021/08/13 08:13:52;;;;;;;22.85;12.02;;;22.50;99.90;;;;;;5092421;28;20031;-86
2021/08/13 08:16:28;;;;;;;19.60;11.93;;;22.30;99.90;;;;;;5091808;28;20028;-85
2021/08/13 08:18:54;;;;;;;23.45;11.70;;;22.30;99.90;;;;;;5091886;28;20024;-89
2021/08/13 08:21:22;;;;;;;16.63;11.35;;;22.30;99.90;;;;;;5091965;28;20028;-87
2021/08/13 08:23:48;;;;;;;20.52;12.90;;;22.60;99.90;;;;;;5093800;28;20065;-86
2021/08/13 08:26:13;;;;;;;15.52;10.00;;;22.90;99.90;;;;;;5091810;28;20536;-86
2021/08/13 08:28:45;;;;;;;17.52;9.43;;;23.10;99.90;;;;;;5091775;28;20020;-84
2021/08/13 08:31:11;;;;;;;16.92;8.48;;;23.00;99.90;;;;;;5092983;28;20141;-83
2021/08/13 08:33:37;;;;;;;14.23;8.85;;;22.80;99.90;;;;;;5091408;28;20572;-87
2021/08/13 08:36:03;;;;;;;11.38;7.45;;;22.50;99.90;;;;;;5091118;28;20115;-85
2021/08/13 08:38:28;;;;;;;11.75;8.18;;;22.50;99.90;;;;;;5091327;28;20046;-83
2021/08/13 08:41:06;;;;;;;10.48;7.95;;;22.40;99.90;;;;;;5084506;28;20020;-85
2021/08/13 08:43:38;;;;;;;9.18;6.50;;;22.40;99.90;;;;;;5086616;28;20111;-84
2021/08/13 08:46:07;;;;;;;11.98;5.85;;;22.40;99.90;;;;;;5070863;28;20487;-84
2021/08/13 08:48:40;;;;;;;12.38;5.28;;;22.40;99.90;;;;;;5090369;28;20070;-85
2021/08/13 08:51:09;;;;;;;16.17;7.00;;;22.40;99.90;;;;;;5091485;28;20051;-87
2021/08/13 08:54:27;;;;;;;12.75;6.88;;;22.60;99.90;;;;;;5092545;28;20507;-86
2021/08/13 08:57:08;;;;;;;9.15;5.47;;;22.60;99.90;;;;;;5090881;28;20020;-84
2021/08/13 08:59:41;;;;;;;6.50;4.53;;;22.90;99.90;;;;;;5091143;28;20028;-85
2021/08/13 09:02:09;;;;;;;13.23;4.90;;;22.40;99.90;;;;;;5091002;28;20024;-85
2021/08/13 09:04:44;;;;;;;8.60;4.07;;;22.40;99.90;;;;;;5092119;28;20027;-86
2021/08/13 09:07:09;;;;;;;7.88;4.60;;;22.30;99.90;;;;;;5090767;28;20027;-84
2021/08/13 09:09:37;;;;;;;8.95;4.82;;;22.40;99.90;;;;;;5092251;28;20028;-83
2021/08/13 09:12:05;;;;;;;6.03;3.58;;;22.20;99.90;;;;;;5091028;28;20098;-84
2021/08/13 09:14:41;;;;;;;6.35;4.20;;;22.50;99.90;;;;;;5090789;28;20169;-88
2021/08/13 09:17:07;;;;;;;5.70;4.32;;;22.60;99.90;;;;;;5090921;28;20031;-85
2021/08/13 09:19:40;;;;;;;10.02;4.45;;;22.60;99.90;;;;;;5090526;28;20110;-85
2021/08/13 09:22:12;;;;;;;5.18;3.50;;;22.70;99.90;;;;;;5092355;28;20051;-83
2021/08/13 09:24:40;;;;;;;4.78;3.38;;;22.90;99.90;;;;;;5090697;28;20035;-85
2021/08/13 09:27:26;;;;;;;7.45;3.33;;;22.70;99.90;;;;;;5090844;28;20395;-83
2021/08/13 09:30:12;;;;;;;5.55;3.55;;;22.80;99.90;;;;;;5091569;28;20145;-87
2021/08/13 09:32:38;;;;;;;6.47;3.75;;;22.80;99.90;;;;;;5092034;28;20099;-83
2021/08/13 09:35:07;;;;;;;6.05;3.17;;;23.10;99.90;;;;;;5090510;28;20044;-84
2021/08/13 09:37:40;;;;;;;5.82;3.92;;;23.00;99.90;;;;;;5090653;28;20077;-86
2021/08/13 09:40:09;;;;;;;9.87;3.53;;;23.00;99.90;;;;;;5090707;28;20029;-83
2021/08/13 09:42:37;;;;;;;6.05;3.38;;;22.50;99.90;;;;;;5083151;28;20024;-85
2021/08/13 09:45:21;;;;;;;9.65;3.45;;;22.50;99.90;;;;;;5087976;28;20024;-84
2021/08/13 09:47:49;;;;;;;8.25;3.13;;;22.00;99.90;;;;;;5086374;28;20026;-85
2021/08/13 09:50:21;;;;;;;8.35;3.42;;;22.20;99.90;;;;;;5086612;28;20039;-84
2021/08/13 09:53:06;;;;;;;7.50;3.97;;;22.40;99.90;;;;;;5086122;28;20028;-88
2021/08/13 09:55:35;;;;;;;9.02;3.47;;;22.50;99.90;;;;;;5086237;28;20024;-85
2021/08/13 09:58:04;;;;;;;5.10;3.22;;;22.60;99.90;;;;;;5086638;28;20028;-86
2021/08/13 10:00:40;;;;;;;8.57;4.43;;;22.80;99.90;;;;;;5085352;28;20571;-86
2021/08/13 10:03:07;;;;;;;7.07;3.47;;;23.00;99.90;;;;;;5089447;28;20040;-83
2021/08/13 10:05:35;;;;;;;3.85;3.20;;;23.10;99.90;;;;;;5090475;28;20020;-85
2021/08/13 10:08:03;;;;;;;5.90;3.50;;;23.10;99.90;;;;;;5091817;28;20020;-85
2021/08/13 10:10:29;;;;;;;5.03;3.22;;;23.40;99.90;;;;;;5090119;28;20028;-86
2021/08/13 10:12:55;;;;;;;6.68;4.00;;;23.60;99.90;;;;;;5091705;28;20028;-86
2021/08/13 10:15:37;;;;;;;7.15;3.80;;;23.60;99.90;;;;;;5083795;28;20051;-87
2021/08/13 10:18:08;;;;;;;5.82;3.28;;;23.80;99.90;;;;;;5086860;28;20391;-82
2021/08/13 10:20:39;;;;;;;9.98;4.30;;;23.60;99.90;;;;;;5081553;28;20020;-89
2021/08/13 10:23:05;;;;;;;5.03;3.80;;;23.60;99.90;;;;;;5089591;28;20101;-87
2021/08/13 10:25:30;;;;;;;5.63;3.40;;;23.30;99.90;;;;;;5087959;28;20024;-90
2021/08/13 10:27:56;;;;;;;6.80;3.03;;;23.50;99.90;;;;;;5090062;28;20031;-90
2021/08/13 10:30:34;;;;;;;7.25;3.65;;;23.40;99.90;;;;;;5089038;28;20392;-91
2021/08/13 10:33:03;;;;;;;9.48;3.80;;;23.40;99.90;;;;;;5085880;28;20028;-88
2021/08/13 10:35:57;;;;;;;8.40;3.40;;;23.30;99.90;;;;;;5079087;28;20023;-85
2021/08/13 10:38:25;;;;;;;10.15;3.42;;;23.30;99.90;;;;;;5086304;28;20032;-85
2021/08/13 10:40:51;;;;;;;8.63;3.53;;;23.30;99.90;;;;;;5086606;28;20031;-87
2021/08/13 10:43:20;;;;;;;10.38;3.63;;;23.10;99.90;;;;;;5090286;28;20484;-88
2021/08/13 10:45:51;;;;;;;6.25;3.40;;;23.30;99.90;;;;;;5090419;28;20020;-86
2021/08/13 10:48:27;;;;;;;6.05;3.50;;;23.20;99.90;;;;;;5091007;28;20484;-89
2021/08/13 10:51:03;;;;;;;5.60;3.35;;;23.30;99.90;;;;;;5091272;28;20418;-93
2021/08/13 10:53:37;;;;;;;7.28;4.00;;;23.30;99.90;;;;;;5086522;28;20050;-82
2021/08/13 10:56:04;;;;;;;12.73;4.40;;;23.40;99.90;;;;;;5074343;28;20027;-84
2021/08/13 10:58:36;;;;;;;5.70;4.28;;;23.60;99.90;;;;;;5074459;28;20384;-83
2021/08/13 11:01:08;;;;;;;5.97;3.28;;;23.60;99.90;;;;;;5074377;28;20613;-86
2021/08/13 11:03:36;;;;;;;5.77;3.70;;;23.50;99.90;;;;;;5083525;28;20044;-83
2021/08/13 11:06:02;;;;;;;5.97;4.28;;;23.70;99.90;;;;;;5094314;28;20254;-85
2021/08/13 11:08:40;;;;;;;7.63;3.65;;;24.10;99.90;;;;;;5094716;28;20031;-85
2021/08/13 11:11:09;;;;;;;7.57;4.25;;;24.00;99.90;;;;;;5094969;28;20028;-91
2021/08/13 11:13:37;;;;;;;8.60;4.00;;;23.70;99.90;;;;;;5092646;28;20035;-90
2021/08/13 11:16:22;;;;;;;4.82;2.80;;;23.80;99.90;;;;;;5093125;28;20028;-86
2021/08/13 11:19:00;;;;;;;10.23;4.03;;;24.00;99.90;;;;;;5093593;28;20028;-92
2021/08/13 11:21:46;;;;;;;6.97;3.22;;;24.40;99.90;;;;;;5093985;28;20024;-89
2021/08/13 11:24:13;;;;;;;8.00;2.90;;;24.20;99.90;;;;;;5092866;28;20081;-87
2021/08/13 11:26:51;;;;;;;5.32;3.30;;;23.80;99.90;;;;;;5094594;28;20827;-88
2021/08/13 11:29:29;;;;;;;5.50;3.17;;;23.90;99.90;;;;;;5094371;28;20153;-86
2021/08/13 11:32:13;;;;;;;4.57;2.70;;;23.80;99.90;;;;;;5095650;28;20028;-88
2021/08/13 11:34:42;;;;;;;6.78;3.08;;;24.00;99.90;;;;;;5094237;28;20114;-87
2021/08/13 11:37:08;;;;;;;7.65;3.08;;;23.90;99.90;;;;;;5093168;28;20093;-86
2021/08/13 11:39:37;;;;;;;7.15;3.47;;;23.60;99.90;;;;;;5094626;28;20110;-86
2021/08/13 11:42:10;;;;;;;10.90;3.97;;;23.50;99.90;;;;;;5093179;28;20484;-85
2021/08/13 11:44:36;;;;;;;7.95;4.25;;;23.00;99.90;;;;;;5092961;28;20030;-90
2021/08/13 11:47:03;;;;;;;8.48;4.40;;;23.00;99.90;;;;;;5093470;28;20078;-87
2021/08/13 11:49:29;;;;;;;7.32;3.75;;;23.00;99.90;;;;;;5083660;28;20017;-85
2021/08/13 11:51:55;;;;;;;4.90;3.67;;;22.90;99.90;;;;;;5088319;28;20501;-84
2021/08/13 11:54:28;;;;;;;8.25;4.28;;;23.00;99.90;;;;;;5087574;28;20112;-86
2021/08/13 11:57:10;;;;;;;16.98;4.25;;;22.90;99.90;;;;;;5083887;28;20078;-84
2021/08/13 11:59:36;;;;;;;11.45;4.85;;;22.90;99.90;;;;;;5089719;28;20034;-84
2021/08/13 12:02:02;;;;;;;16.10;5.15;;;22.80;99.90;;;;;;5088323;28;20032;-84
2021/08/13 12:04:27;;;;;;;6.60;5.03;;;22.70;99.90;;;;;;5089022;28;20024;-83
2021/08/13 12:07:04;;;;;;;9.82;5.35;;;22.40;99.90;;;;;;5089528;28;20052;-82
2021/08/13 12:09:36;;;;;;;8.20;5.07;;;22.30;99.90;;;;;;5089864;28;20016;-83
2021/08/13 12:12:05;;;;;;;11.57;5.00;;;22.30;99.90;;;;;;5080161;28;20026;-83
2021/08/13 12:14:32;;;;;;;6.65;4.65;;;22.20;99.90;;;;;;5088326;28;20020;-85
2021/08/13 12:16:58;;;;;;;8.05;5.18;;;22.00;99.90;;;;;;5087920;28;20020;-87
2021/08/13 12:19:24;;;;;;;8.82;5.22;;;22.10;99.90;;;;;;5089252;28;20046;-84
2021/08/13 12:21:58;;;;;;;10.27;6.38;;;21.90;99.90;;;;;;5092926;28;20051;-84
2021/08/13 12:24:28;;;;;;;12.73;6.20;;;21.70;99.90;;;;;;5092835;28;20020;-83
2021/08/13 12:26:57;;;;;;;13.45;7.80;;;21.90;99.90;;;;;;5093134;28;20055;-82
2021/08/13 12:29:25;;;;;;;13.27;8.65;;;21.80;99.90;;;;;;5092994;28;20095;-85
2021/08/13 12:31:55;;;;;;;16.40;9.75;;;21.70;99.90;;;;;;5092996;28;20077;-83
2021/08/13 12:34:22;;;;;;;17.35;10.13;;;21.30;99.90;;;;;;5092426;28;20028;-88
2021/08/13 12:37:06;;;;;;;17.50;9.90;;;21.20;99.90;;;;;;5092817;28;20454;-85
2021/08/13 12:39:39;;;;;;;16.02;9.32;;;21.20;99.90;;;;;;5092705;28;20059;-84
2021/08/13 12:42:06;;;;;;;15.70;11.07;;;21.50;99.90;;;;;;5092876;28;20449;-84
2021/08/13 12:44:33;;;;;;;20.95;9.77;;;21.60;99.90;;;;;;5091293;28;20078;-83
2021/08/13 12:47:00;;;;;;;21.38;10.77;;;21.70;99.90;;;;;;5092832;28;20043;-84
2021/08/13 12:49:27;;;;;;;16.73;10.80;;;21.80;99.90;;;;;;5092826;28;20023;-83
2021/08/13 12:52:12;;;;;;;19.67;11.38;;;21.70;99.90;;;;;;5092758;28;20533;-84